Flight Track Log - Related Links

Times and Time Zones

All times are in EDT time to prevent confusion due to time zone crossing. See the LIA565 flight status page for this flight to view local times or setup timezone preferences in your user account.

Time Position Orientation Groundspeed Altitude Reporting Facility
EDT Latitude Longitude Course Direction KTS MPH feet Rate Location/Type
Fri 04:59:00 PM 14.8602 -60.7928 144° Southeast  Level Estimated
Fri 05:00:00 PM 14.7915 -60.7423 145° Southeast  Level Estimated
Fri 05:01:00 PM 14.7227 -60.6918 145° Southeast  Level Estimated
Fri 05:02:00 PM 14.6539 -60.6413 145° Southeast  Level Estimated
Fri 05:03:00 PM 14.5852 -60.5908 145° Southeast  Level Estimated
Fri 05:04:00 PM 14.5164 -60.5404 145° Southeast  Level Estimated
Fri 05:05:00 PM 14.4476 -60.4901 145° Southeast  Level Estimated
Fri 05:06:00 PM 14.3788 -60.4397 145° Southeast  Level Estimated
Fri 05:07:00 PM 14.3099 -60.3894 145° Southeast  Level Estimated
Fri 05:08:00 PM 14.2411 -60.3391 145° Southeast  Level Estimated
Fri 05:09:00 PM 14.1723 -60.2888 145° Southeast  Level Estimated
Fri 05:10:00 PM 14.1034 -60.2386 145° Southeast  Level Estimated
Fri 05:11:00 PM 14.0346 -60.1884 145° Southeast  Level Estimated
Fri 05:12:00 PM 13.9657 -60.1382 145° Southeast  Level Estimated
Fri 05:13:00 PM 13.8968 -60.0881 145° Southeast  Level Estimated
Fri 05:14:00 PM 13.8279 -60.0380 145° Southeast  Level Estimated
Fri 05:15:00 PM 13.7590 -59.9879 145° Southeast  Level Estimated
Fri 05:16:00 PM 13.6901 -59.9379 145° Southeast  Level Estimated
Fri 05:17:00 PM 13.6212 -59.8878 145° Southeast  Level Estimated
Fri 05:18:00 PM 13.5523 -59.8378 145° Southeast  Level Estimated
Fri 05:19:00 PM 13.4833 -59.7879 145° Southeast  Level Estimated
Fri 05:20:00 PM 13.4144 -59.7379 145° Southeast  Level Estimated
Fri 05:21:00 PM 13.3454 -59.6880 145° Southeast  Level Estimated
Fri 05:22:00 PM 13.2764 -59.6382 145° Southeast  Level Estimated
Fri 05:23:00 PM 13.2074 -59.5883 145° Southeast  Level Estimated
Fri 05:24:00 PM 13.1385 -59.5385 145° Southeast  Level Estimated
Fri 05:25:00 PM 13.0746 -59.4925 145° Southeast  Level Estimated
Fri 05:26:00 PM 13.0746 -59.4925 52° Northeast  Level Estimated
Fri 05:27:00 PM 13.0746 -59.4925 52° Northeast  Level Estimated
Fri 05:28:00 PM 13.0746 -59.4925 52° Northeast  Level Estimated
Fri 05:29:00 PM 13.0746 -59.4925 52° Northeast  Level Estimated
Fri 05:30:00 PM 13.0746 -59.4925 52° Northeast  Level Estimated
Fri 05:31:00 PM 13.0746 -59.4925 52° Northeast  Level Estimated
Fri 05:32:00 PM 13.0746 -59.4925 52° Northeast  Level Estimated
Fri 05:33:00 PM 13.0746 -59.4925 52° Northeast  Level Estimated
Fri 05:34:00 PM 13.0746 -59.4925 52° Northeast  Level Estimated
Fri 05:35:00 PM 13.0746 -59.4925 52° Northeast  Level Estimated
Fri 05:36:00 PM 13.0746 -59.4925 52° Northeast  Level Estimated
Fri 05:37:00 PM 13.0746 -59.4925 52° Northeast  Level Estimated
Fri 05:38:00 PM 13.0746 -59.4925 52° Northeast  Level Estimated
Fri 05:39:00 PM 13.0746 -59.4925 52° Northeast  Level Estimated
Fri 05:40:00 PM 13.0746 -59.4925 52° Northeast  Level Estimated
Fri 05:41:00 PM 13.0746 -59.4925 52° Northeast  Level Estimated

Login

Don't have an account? Register now (free) for customized features, flight alerts, and more!